Pago Pago, AS

8:17 AM SST on December 25, 2014 (GMT -1100)
Kona International At Keahole | Change Station
CLOSE
Current Station
Airport
Location: Keahole Point,
Elevation: 43 ft
Nearby Weather Stations
Active Advisory: Flash Flood Watch

Elev 43 ft 19.74 °N, 156.05 °W | Updated 24 minutes ago

Scattered Clouds
Scattered Clouds
76 °F
Feels Like 76 °F
N
8
Wind Variable Wind from SE

Today
High -- | Low -- °F
--% Chance of Precip.
Yesterday
High -- | Low -- °F
Precip. -- in
5:54 AM 6:52 PM
Waxing Crescent, 18% visible
Pressure 29.81 in
Visibility 10.0 miles
Clouds Few 2700 ft
Scattered Clouds 3400 ft
Dew Point 66 °F
Humidity 71%
Rainfall 0.00 in
Snow Depth Not available.
UV 1 out of 12
Pollen Not available.
Air Quality Not available.
Flu Activity Not available.
METAR PHKO 251853Z 14007KT 10SM FEW027 SCT034 24/19 A2981 RMK AO2 SLP095 T02440189

More Conditions Fewer Conditions

Pressure 29.81 in
Visibility 10.0 miles
Clouds Few 2700 ft
Scattered Clouds 3400 ft
Dew Point 66 °F
Humidity 71%
Rainfall 0.00 in
Snow Depth Not available.
UV 1 out of 12
Pollen Not available.
Air Quality Not available.
Flu Activity Not available.
METAR PHKO 251853Z 14007KT 10SM FEW027 SCT034 24/19 A2981 RMK AO2 SLP095 T02440189

More Conditions Fewer Conditions

10-Day Weather Forecast

Almanac

Astronomy

Dec. 25, 2014 Rise Set
Actual Time
Civil Twilight
Nautical Twilight
Astronomical Twilight
Moon
Length of Visible Light
Length of Day
Tomorrow will be .
, % of the Moon is Illuminated

Today's Extremes

State Highs State Lows

Community

WunderPhotos

Upload Photos

1,780,366 photos uploaded!

WunderBlogs® & News

Nearby

Air Quality

  Air Quality AQ Index Pollutant
Not available.

Snow Depth

Station Depth Elevation

Earthquake Activity

City Distance Mag. Time & Date
Minimum magnitude displayed is 2.5.

Coastal Water Temperatures

Place Temperature

Nearby Weather Stations